Terminal Aerodrome Forecast
Issued by NWS

Home | Current Version | Previous Version | Graphics & Text | Print | Product List | Glossary On
Versions: 1 2 3 4 5 6 7 8 9 10 11 12 13 14 15 16 17 18 19
000
FTUS43 KMPX 060009 AAA
TAFAXN
TAF AMD
KAXN 060009Z 0600/0624 16011G18KT P6SM SCT050 BKN150
     FM060100 14008KT 6SM -SHRA BR VCTS SCT035 OVC060CB
      TEMPO 0601/0605 2SM TSRA BR BKN012 OVC025CB
     FM060700 03010KT 2SM SHRA BR BKN006 OVC012
     FM061400 01012KT 5SM -SHRA BR SCT006 OVC020
     FM061800 36012G20KT P6SM SCT012 BKN035=

USA.gov is the U.S. government's official web portal to all federal, state and local government web resources and services.